createdAt,value
2022-11-20T00:01:26.400Z,99977.06
2022-11-20T00:03:56.066Z,99978.22
2022-11-20T00:06:24.208Z,99975.19
2022-11-20T00:08:51.838Z,99972.69
2022-11-20T00:11:21.652Z,99968.16
2022-11-20T00:13:52.243Z,99968.16
2022-11-20T00:16:22.737Z,99966.13
2022-11-20T00:18:50.355Z,99963.13
2022-11-20T00:21:22.089Z,99964.13
2022-11-20T00:23:50.759Z,99958.75
2022-11-20T00:26:21.053Z,99952.19
2022-11-20T00:28:56.753Z,99954.03
2022-11-20T00:31:24.244Z,99951.84
2022-11-20T00:33:51.685Z,99941.91
2022-11-20T00:36:24.417Z,99929.66
2022-11-20T00:38:56.222Z,99936.03
2022-11-20T00:41:24.448Z,99936.03
2022-11-20T00:43:54.121Z,99922.13
2022-11-20T00:46:25.167Z,99921.28
2022-11-20T00:48:52.113Z,99915.03
2022-11-20T00:51:22.638Z,99915.03
2022-11-20T00:53:49.797Z,99909.66
2022-11-20T00:56:19.825Z,99894.19
2022-11-20T00:58:49.592Z,99886.47
2022-11-20T01:01:25.989Z,99882.59
2022-11-20T01:03:55.623Z,99870.31
2022-11-20T01:06:30.933Z,99874.84
2022-11-20T01:09:01.373Z,99865.09
2022-11-20T01:11:32.214Z,99863.25
2022-11-20T01:14:01.792Z,99858.88
2022-11-20T01:16:36.134Z,99858.00
2022-11-20T01:19:07.452Z,99849.09
2022-11-20T01:21:41.270Z,99841.03
2022-11-20T01:24:12.104Z,99842.72
2022-11-20T01:26:41.948Z,99837.31
2022-11-20T01:29:16.479Z,99826.75
2022-11-20T01:31:44.206Z,99823.22
2022-11-20T01:34:16.142Z,99815.31
2022-11-20T01:36:44.139Z,99801.00
2022-11-20T01:39:24.615Z,99795.13
2022-11-20T01:42:12.534Z,99787.06
2022-11-20T01:44:58.040Z,99788.22
2022-11-20T01:47:35.316Z,99775.44
2022-11-20T01:50:27.614Z,99766.53
2022-11-20T01:53:03.523Z,99762.66
2022-11-20T01:55:36.359Z,99763.00
2022-11-20T01:58:05.873Z,99765.34
2022-11-20T02:00:33.435Z,99752.09
2022-11-20T02:03:09.574Z,99746.00
2022-11-20T02:06:17.926Z,99747.84
2022-11-20T02:08:44.744Z,99739.78
2022-11-20T02:11:11.585Z,99733.41
2022-11-20T02:13:44.438Z,99726.34
2022-11-20T02:16:26.522Z,99734.75
2022-11-20T02:18:56.651Z,99718.63
2022-11-20T02:21:47.953Z,99718.94
2022-11-20T02:24:23.309Z,99721.63
2022-11-20T02:27:14.195Z,99718.78
2022-11-20T02:30:12.096Z,99709.53
2022-11-20T02:32:40.522Z,99701.28
2022-11-20T02:35:31.562Z,99702.78
2022-11-20T02:38:02.417Z,99689.00
2022-11-20T02:40:29.873Z,99679.59
2022-11-20T02:42:58.460Z,99670.50
2022-11-20T02:45:26.341Z,99684.97
2022-11-20T02:47:53.662Z,99669.69
2022-11-20T02:50:21.183Z,99667.81
2022-11-20T02:52:47.937Z,99677.25
2022-11-20T02:55:14.846Z,99658.25
2022-11-20T02:57:41.616Z,99664.97
2022-11-20T03:00:12.510Z,99649.84
2022-11-20T03:02:39.520Z,99646.97
2022-11-20T03:05:06.535Z,99636.03
2022-11-20T03:07:33.420Z,99620.06
2022-11-20T03:10:00.211Z,99613.53
2022-11-20T03:12:26.969Z,99609.81
2022-11-20T03:14:53.710Z,99615.34
2022-11-20T03:17:21.158Z,99611.31
2022-11-20T03:19:47.939Z,99601.56
2022-11-20T03:22:14.725Z,99592.50
2022-11-20T03:24:41.672Z,99592.50
2022-11-20T03:27:08.465Z,99581.38
2022-11-20T03:29:37.133Z,99584.75
2022-11-20T03:32:04.005Z,99574.84
2022-11-20T03:34:30.793Z,99571.94
2022-11-20T03:36:57.590Z,99564.56
2022-11-20T03:39:24.526Z,99557.16
2022-11-20T03:41:51.750Z,99552.78
2022-11-20T03:44:22.265Z,99562.19
2022-11-20T03:46:49.420Z,99554.78
2022-11-20T03:49:16.228Z,99560.66
2022-11-20T03:51:42.962Z,99551.59
2022-11-20T03:54:10.227Z,99547.69
2022-11-20T03:56:40.277Z,99538.25
2022-11-20T03:59:07.969Z,99536.78
2022-11-20T04:01:38.634Z,99533.53
2022-11-20T04:04:06.205Z,99528.66
2022-11-20T04:06:38.643Z,99529.97
2022-11-20T04:09:07.150Z,99520.91
2022-11-20T04:11:38.459Z,99527.63
2022-11-20T04:14:07.629Z,99531.13
2022-11-20T04:16:37.194Z,99533.00
2022-11-20T04:19:07.926Z,99531.47
2022-11-20T04:21:34.822Z,99534.47
2022-11-20T04:24:02.125Z,99524.19
2022-11-20T04:26:30.555Z,99523.38
2022-11-20T04:28:58.562Z,99521.50
2022-11-20T04:31:28.543Z,99512.88
2022-11-20T04:33:55.916Z,99516.91
2022-11-20T04:36:28.081Z,99511.72
2022-11-20T04:38:59.978Z,99513.38
2022-11-20T04:41:30.558Z,99518.25
2022-11-20T04:44:03.462Z,99517.56
2022-11-20T04:46:40.318Z,99526.69
2022-11-20T04:49:08.044Z,99524.63
2022-11-20T04:51:35.262Z,99527.34
2022-11-20T04:54:02.215Z,99532.72
2022-11-20T04:56:29.350Z,99525.66
2022-11-20T04:58:56.317Z,99535.06
2022-11-20T05:01:25.947Z,99536.78
2022-11-20T05:03:53.256Z,99532.72
2022-11-20T05:06:22.339Z,99541.81
2022-11-20T05:08:50.008Z,99537.63
2022-11-20T05:11:21.359Z,99546.03
2022-11-20T05:13:49.227Z,99544.81
2022-11-20T05:16:24.994Z,99557.63
2022-11-20T05:18:54.232Z,99567.41
2022-11-20T05:21:21.780Z,99560.97
2022-11-20T05:23:48.799Z,99573.78
2022-11-20T05:26:22.516Z,99573.78
2022-11-20T05:28:50.809Z,99568.41
2022-11-20T05:31:27.535Z,99579.84
2022-11-20T05:33:56.104Z,99577.16
2022-11-20T05:36:22.911Z,99578.19
2022-11-20T05:38:51.225Z,99579.22
2022-11-20T05:41:21.259Z,99570.78
2022-11-20T05:43:49.756Z,99577.69
2022-11-20T05:46:26.432Z,99573.69
2022-11-20T05:48:55.324Z,99581.63
2022-11-20T05:51:22.421Z,99573.91
2022-11-20T05:53:49.282Z,99582.66
2022-11-20T05:56:21.738Z,99576.31
2022-11-20T05:58:50.072Z,99584.38
2022-11-20T06:01:26.122Z,99580.03
2022-11-20T06:03:55.095Z,99577.19
2022-11-20T06:06:22.284Z,99574.00
2022-11-20T06:08:49.913Z,99582.75
2022-11-20T06:11:17.979Z,99581.41
2022-11-20T06:13:45.842Z,99583.44
2022-11-20T06:16:15.364Z,99584.56
2022-11-20T06:18:42.238Z,99578.00
2022-11-20T06:21:16.499Z,99577.34
2022-11-20T06:23:44.567Z,99581.72
2022-11-20T06:26:17.950Z,99577.53
2022-11-20T06:28:44.865Z,99578.72
2022-11-20T06:31:14.538Z,99588.09
2022-11-20T06:33:42.918Z,99601.22
2022-11-20T06:36:13.092Z,99599.88
2022-11-20T06:38:41.126Z,99605.91
2022-11-20T06:41:12.698Z,99610.94
2022-11-20T06:43:39.469Z,99609.56
2022-11-20T06:46:06.299Z,99604.03
2022-11-20T06:48:33.659Z,99609.56
2022-11-20T06:51:00.437Z,99602.50
2022-11-20T06:53:27.184Z,99596.97
2022-11-20T06:56:01.131Z,99604.88
2022-11-20T06:58:29.968Z,99595.94
2022-11-20T07:01:11.759Z,99599.81
2022-11-20T07:03:39.130Z,99605.03
2022-11-20T07:06:07.189Z,99605.34
2022-11-20T07:08:35.097Z,99607.53
2022-11-20T07:11:07.915Z,99604.34
2022-11-20T07:13:34.844Z,99610.25
2022-11-20T07:16:06.306Z,99620.63
2022-11-20T07:18:33.298Z,99620.63
2022-11-20T07:21:06.330Z,99623.81
2022-11-20T07:23:33.214Z,99621.97
2022-11-20T07:26:08.559Z,99620.78
2022-11-20T07:28:35.920Z,99624.00
2022-11-20T07:31:03.480Z,99627.34
2022-11-20T07:33:30.483Z,99641.81
2022-11-20T07:36:00.036Z,99635.75
2022-11-20T07:38:26.873Z,99638.25
2022-11-20T07:40:58.804Z,99636.59
2022-11-20T07:43:26.438Z,99633.75
2022-11-20T07:45:53.334Z,99643.81
2022-11-20T07:48:20.123Z,99643.81
2022-11-20T07:50:46.929Z,99640.59
2022-11-20T07:53:14.984Z,99639.59
2022-11-20T07:55:41.939Z,99644.13
2022-11-20T07:58:08.671Z,99646.81
2022-11-20T08:00:35.630Z,99640.09
2022-11-20T08:03:05.597Z,99647.50
2022-11-20T08:05:32.565Z,99655.25
2022-11-20T08:07:59.643Z,99651.22
2022-11-20T08:10:26.679Z,99664.31
2022-11-20T08:13:32.570Z,99649.72
2022-11-20T08:15:59.321Z,99654.25
2022-11-20T08:18:31.644Z,99657.63
2022-11-20T08:21:03.263Z,99653.91
2022-11-20T08:23:30.362Z,99657.28
2022-11-20T08:25:57.192Z,99661.31
2022-11-20T08:28:24.387Z,99660.31
2022-11-20T08:30:51.617Z,99663.69
2022-11-20T08:33:19.208Z,99654.63
2022-11-20T08:35:46.563Z,99662.03
2022-11-20T08:38:13.693Z,99669.91
2022-11-20T08:40:40.459Z,99662.84
2022-11-20T08:43:07.258Z,99669.56
2022-11-20T08:45:35.205Z,99668.53
2022-11-20T08:48:05.961Z,99674.28
2022-11-20T08:50:34.150Z,99665.34
2022-11-20T08:53:07.601Z,99666.38
2022-11-20T08:55:36.718Z,99664.50
2022-11-20T08:58:08.013Z,99668.88
2022-11-20T09:00:35.747Z,99669.72
2022-11-20T09:03:03.198Z,99666.38
2022-11-20T09:05:30.608Z,99681.16
2022-11-20T09:07:59.039Z,99681.69
2022-11-20T09:10:27.100Z,99674.47
2022-11-20T09:12:56.394Z,99668.94
2022-11-20T09:15:24.920Z,99675.50
2022-11-20T09:17:56.888Z,99680.59
2022-11-20T09:20:23.725Z,99675.25
2022-11-20T09:22:50.537Z,99686.34
2022-11-20T09:25:17.787Z,99687.31
2022-11-20T09:27:47.148Z,99683.63
2022-11-20T09:30:16.037Z,99671.50
2022-11-20T09:32:45.849Z,99685.81
2022-11-20T09:35:12.935Z,99695.41
2022-11-20T09:37:39.817Z,99686.31
2022-11-20T09:40:08.467Z,99677.25
2022-11-20T09:43:20.274Z,99679.25
2022-11-20T09:46:30.998Z,99668.13
2022-11-20T09:49:34.828Z,99681.94
2022-11-20T09:52:21.823Z,99682.28
2022-11-20T09:54:49.186Z,99676.19
2022-11-20T09:57:22.981Z,99681.56
2022-11-20T10:00:00.769Z,99689.63
2022-11-20T10:02:37.605Z,99684.94
2022-11-20T10:05:16.648Z,99678.88
2022-11-20T10:07:56.521Z,99686.94
2022-11-20T10:11:19.587Z,99690.31
2022-11-20T10:14:07.466Z,99679.88
2022-11-20T10:16:41.276Z,99683.72
2022-11-20T10:19:37.845Z,99682.53
2022-11-20T10:22:32.967Z,99682.00
2022-11-20T10:25:16.955Z,99683.34
2022-11-20T10:28:14.533Z,99687.38
2022-11-20T10:30:47.155Z,99679.63
2022-11-20T10:33:23.838Z,99673.91
2022-11-20T10:36:29.628Z,99675.56
2022-11-20T10:39:06.951Z,99671.72
2022-11-20T10:41:40.379Z,99655.16
2022-11-20T10:44:53.729Z,99656.88
2022-11-20T10:47:22.725Z,99665.25
2022-11-20T10:49:57.055Z,99668.97
2022-11-20T10:52:45.030Z,99674.38
2022-11-20T10:55:17.699Z,99677.00
2022-11-20T10:58:08.245Z,99674.31
2022-11-20T11:00:35.133Z,99666.22
2022-11-20T11:03:04.122Z,99675.63
2022-11-20T11:05:41.857Z,99675.31
2022-11-20T11:08:16.562Z,99682.88
2022-11-20T11:10:58.910Z,99682.69
2022-11-20T11:13:26.830Z,99682.00
2022-11-20T11:15:54.769Z,99683.66
2022-11-20T11:18:33.158Z,99678.41
2022-11-20T11:21:05.699Z,99666.78
2022-11-20T11:23:35.838Z,99659.81
2022-11-20T11:26:06.233Z,99654.09
2022-11-20T11:28:34.672Z,99647.97
2022-11-20T11:31:01.483Z,99634.31
2022-11-20T11:33:37.160Z,99637.66
2022-11-20T11:36:19.475Z,99630.91
2022-11-20T11:38:46.327Z,99632.03
2022-11-20T11:41:24.193Z,99631.19
2022-11-20T11:44:17.930Z,99625.56
2022-11-20T11:46:56.856Z,99614.41
2022-11-20T11:49:23.936Z,99624.84
2022-11-20T11:52:09.449Z,99625.31
2022-11-20T11:54:43.338Z,99612.84
2022-11-20T11:57:56.658Z,99617.69
2022-11-20T12:00:23.996Z,99623.03
2022-11-20T12:03:19.111Z,99628.91
2022-11-20T12:06:10.721Z,99626.13
2022-11-20T12:09:15.891Z,99623.53
2022-11-20T12:11:52.560Z,99621.59
2022-11-20T12:14:37.521Z,99630.69
2022-11-20T12:17:04.765Z,99628.94
2022-11-20T12:19:35.547Z,99625.50
2022-11-20T12:22:30.144Z,99628.00
2022-11-20T12:25:29.773Z,99625.13
2022-11-20T12:28:02.680Z,99625.22
2022-11-20T12:30:29.570Z,99614.22
2022-11-20T12:33:25.604Z,99619.81
2022-11-20T12:36:17.746Z,99611.53
2022-11-20T12:39:17.353Z,99607.78
2022-11-20T12:42:33.775Z,99603.25
2022-11-20T12:45:19.147Z,99594.47
2022-11-20T12:48:16.232Z,99594.47
2022-11-20T12:51:20.398Z,99597.19
2022-11-20T12:54:02.777Z,99610.13
2022-11-20T12:56:47.547Z,99605.72
2022-11-20T12:59:36.228Z,99613.19
2022-11-20T13:02:18.088Z,99610.47
2022-11-20T13:05:07.754Z,99609.34
2022-11-20T13:07:37.639Z,99606.47
2022-11-20T13:10:12.698Z,99596.06
2022-11-20T13:12:51.959Z,99604.34
2022-11-20T13:15:47.032Z,99613.00
2022-11-20T13:18:14.901Z,99595.94
2022-11-20T13:20:46.716Z,99605.94
2022-11-20T13:23:28.785Z,99603.59
2022-11-20T13:26:25.189Z,99600.34
2022-11-20T13:29:12.466Z,99601.94
2022-11-20T13:31:45.559Z,99612.53
2022-11-20T13:34:27.091Z,99623.31
2022-11-20T13:37:01.547Z,99625.75
2022-11-20T13:39:35.624Z,99619.50
2022-11-20T13:42:22.902Z,99627.66
2022-11-20T13:44:56.388Z,99631.94
2022-11-20T13:47:29.533Z,99639.63
2022-11-20T13:50:00.451Z,99640.41
2022-11-20T13:53:17.943Z,99633.13
2022-11-20T13:55:57.590Z,99638.06
2022-11-20T13:59:05.441Z,99644.19
2022-11-20T14:01:33.881Z,99644.53
2022-11-20T14:04:07.817Z,99654.50
2022-11-20T14:06:43.860Z,99655.28
2022-11-20T14:09:27.898Z,99652.34
2022-11-20T14:11:54.769Z,99656.59
2022-11-20T14:14:25.079Z,99653.91
2022-11-20T14:16:53.481Z,99655.44
2022-11-20T14:19:31.661Z,99651.47
2022-11-20T14:22:22.928Z,99640.69
2022-11-20T14:25:06.242Z,99637.34
2022-11-20T14:27:41.283Z,99647.09
2022-11-20T14:30:21.319Z,99632.28
2022-11-20T14:32:49.415Z,99640.38
2022-11-20T14:35:31.275Z,99619.97
2022-11-20T14:37:58.555Z,99626.50
2022-11-20T14:40:36.934Z,99635.22
2022-11-20T14:43:27.923Z,99633.66
2022-11-20T14:46:01.648Z,99625.06
2022-11-20T14:48:46.902Z,99622.19
2022-11-20T14:51:28.665Z,99625.78
2022-11-20T14:53:55.421Z,99628.09
2022-11-20T14:56:25.203Z,99621.44
2022-11-20T14:58:59.431Z,99617.88
2022-11-20T15:01:32.359Z,99624.66
2022-11-20T15:04:03.297Z,99615.78
2022-11-20T15:06:31.770Z,99615.81
2022-11-20T15:08:59.166Z,99622.22
2022-11-20T15:11:33.361Z,99619.06
2022-11-20T15:14:06.491Z,99629.34
2022-11-20T15:16:34.101Z,99626.66
2022-11-20T15:19:03.769Z,99630.03
2022-11-20T15:21:30.567Z,99627.34
2022-11-20T15:23:58.414Z,99624.63
2022-11-20T15:26:28.038Z,99626.84
2022-11-20T15:28:56.119Z,99625.13
2022-11-20T15:31:25.309Z,99630.22
2022-11-20T15:33:52.478Z,99624.63
2022-11-20T15:36:19.492Z,99630.88
2022-11-20T15:38:46.591Z,99632.72
2022-11-20T15:41:13.529Z,99643.81
2022-11-20T15:43:40.326Z,99644.16
2022-11-20T15:46:16.901Z,99641.00
2022-11-20T15:48:48.511Z,99632.41
2022-11-20T15:51:24.479Z,99629.06
2022-11-20T15:53:51.396Z,99635.84
2022-11-20T15:56:18.184Z,99644.56
2022-11-20T15:58:44.965Z,99648.47
2022-11-20T16:01:18.719Z,99643.59
2022-11-20T16:03:46.114Z,99656.72
2022-11-20T16:06:13.287Z,99663.09
2022-11-20T16:08:40.689Z,99671.19
2022-11-20T16:11:07.495Z,99673.84
2022-11-20T16:13:52.850Z,99666.09
2022-11-20T16:16:24.878Z,99662.75
2022-11-20T16:18:51.712Z,99667.75
2022-11-20T16:21:18.731Z,99672.94
2022-11-20T16:23:45.577Z,99677.13
2022-11-20T16:26:21.891Z,99680.66
2022-11-20T16:28:48.897Z,99679.44
2022-11-20T16:31:18.877Z,99700.28
2022-11-20T16:33:54.247Z,99695.56
2022-11-20T16:36:24.144Z,99691.38
2022-11-20T16:39:00.895Z,99680.75
2022-11-20T16:41:31.703Z,99679.38
2022-11-20T16:44:07.582Z,99695.84
2022-11-20T16:46:34.530Z,99701.00
2022-11-20T16:49:04.734Z,99706.00
2022-11-20T16:51:36.165Z,99704.47
2022-11-20T16:54:05.495Z,99708.66
2022-11-20T16:56:32.459Z,99712.50
2022-11-20T16:59:00.680Z,99712.44
2022-11-20T17:01:29.302Z,99729.88
2022-11-20T17:04:03.614Z,99729.34
2022-11-20T17:06:37.022Z,99732.22
2022-11-20T17:09:04.543Z,99732.38
2022-11-20T17:11:31.487Z,99737.88
2022-11-20T17:14:07.651Z,99744.59
2022-11-20T17:16:36.292Z,99739.13
2022-11-20T17:19:05.382Z,99727.88
2022-11-20T17:21:36.399Z,99734.25
2022-11-20T17:24:07.842Z,99738.94
2022-11-20T17:26:36.134Z,99743.78
2022-11-20T17:29:15.586Z,99747.78
2022-11-20T17:31:42.986Z,99751.44
2022-11-20T17:34:13.511Z,99759.13
2022-11-20T17:36:45.281Z,99770.16
2022-11-20T17:39:14.607Z,99764.25
2022-11-20T17:41:41.561Z,99759.50
2022-11-20T17:44:11.933Z,99757.28
2022-11-20T17:46:38.994Z,99762.28
2022-11-20T17:49:06.378Z,99762.72
2022-11-20T17:51:35.396Z,99766.88
2022-11-20T17:54:05.664Z,99763.78
2022-11-20T17:56:52.883Z,99763.41
2022-11-20T17:59:20.174Z,99761.03
2022-11-20T18:01:47.528Z,99756.13
2022-11-20T18:04:14.426Z,99758.28
2022-11-20T18:06:42.744Z,99760.41
2022-11-20T18:09:10.102Z,99759.03
2022-11-20T18:11:39.965Z,99768.19
2022-11-20T18:14:31.468Z,99765.84
2022-11-20T18:17:05.932Z,99774.16
2022-11-20T18:19:41.150Z,99767.28
2022-11-20T18:22:13.442Z,99771.09
2022-11-20T18:24:40.419Z,99764.50
2022-11-20T18:27:12.882Z,99768.31
2022-11-20T18:29:39.701Z,99766.63
2022-11-20T18:32:06.587Z,99769.75
2022-11-20T18:34:33.483Z,99765.69
2022-11-20T18:37:00.225Z,99764.31
2022-11-20T18:39:27.085Z,99763.78
2022-11-20T18:42:12.337Z,99767.75
2022-11-20T18:44:55.103Z,99768.63
2022-11-20T18:47:27.988Z,99767.94
2022-11-20T18:49:57.552Z,99768.22
2022-11-20T18:52:34.281Z,99775.84
2022-11-20T18:55:03.266Z,99773.47
2022-11-20T18:57:31.730Z,99786.16
2022-11-20T19:00:03.447Z,99788.97
2022-11-20T19:02:37.931Z,99781.22
2022-11-20T19:05:08.886Z,99788.72
2022-11-20T19:07:35.729Z,99796.03
2022-11-20T19:10:04.121Z,99803.38
2022-11-20T19:12:31.341Z,99792.41
2022-11-20T19:14:58.373Z,99790.56
2022-11-20T19:17:25.325Z,99795.38
2022-11-20T19:19:55.040Z,99800.59
2022-11-20T19:22:22.421Z,99804.53
2022-11-20T19:24:49.636Z,99808.19
2022-11-20T19:27:16.554Z,99805.09
2022-11-20T19:29:43.317Z,99801.44
2022-11-20T19:32:10.291Z,99808.78
2022-11-20T19:34:37.153Z,99812.28
2022-11-20T19:37:03.955Z,99817.09
2022-11-20T19:39:30.764Z,99822.56
2022-11-20T19:41:57.623Z,99821.88
2022-11-20T19:44:24.367Z,99824.69
2022-11-20T19:46:51.187Z,99822.00
2022-11-20T19:49:18.093Z,99813.16
2022-11-20T19:51:48.333Z,99810.75
2022-11-20T19:54:15.771Z,99809.06
2022-11-20T19:56:42.927Z,99803.03
2022-11-20T19:59:09.653Z,99805.97
2022-11-20T20:01:36.576Z,99814.00
2022-11-20T20:04:07.240Z,99802.91
2022-11-20T20:06:38.562Z,99808.25
2022-11-20T20:09:09.411Z,99811.91
2022-11-20T20:11:36.878Z,99809.34
2022-11-20T20:14:10.788Z,99816.69
2022-11-20T20:16:37.629Z,99812.47
2022-11-20T20:19:05.838Z,99810.19
2022-11-20T20:21:35.404Z,99804.84
2022-11-20T20:24:02.753Z,99806.00
2022-11-20T20:26:31.831Z,99814.16
2022-11-20T20:29:00.122Z,99819.50
2022-11-20T20:31:30.582Z,99806.56
2022-11-20T20:33:58.136Z,99807.53
2022-11-20T20:36:26.260Z,99804.03
2022-11-20T20:38:55.079Z,99809.38
2022-11-20T20:41:24.873Z,99806.69
2022-11-20T20:44:11.378Z,99798.69
2022-11-20T20:46:39.115Z,99795.00
2022-11-20T20:49:06.561Z,99788.41
2022-11-20T20:51:33.925Z,99785.56
2022-11-20T20:54:00.731Z,99785.84
2022-11-20T20:56:27.921Z,99786.28
2022-11-20T20:58:54.705Z,99793.03
2022-11-20T21:01:22.880Z,99800.22
2022-11-20T21:03:52.205Z,99791.75
2022-11-20T21:06:19.029Z,99798.63
2022-11-20T21:08:46.310Z,99798.34
2022-11-20T21:11:16.744Z,99789.63
2022-11-20T21:13:45.756Z,99792.84
2022-11-20T21:16:16.040Z,99782.00
2022-11-20T21:18:42.902Z,99785.97
2022-11-20T21:21:32.700Z,99776.94
2022-11-20T21:23:59.558Z,99772.28
2022-11-20T21:26:26.870Z,99765.66
2022-11-20T21:28:53.915Z,99766.78
2022-11-20T21:31:25.114Z,99767.63
2022-11-20T21:33:54.427Z,99762.13
2022-11-20T21:36:27.636Z,99761.16
2022-11-20T21:38:56.423Z,99763.97
2022-11-20T21:41:25.106Z,99765.97
2022-11-20T21:44:23.626Z,99771.59
2022-11-20T21:46:42.737Z,99761.16
2022-11-20T21:49:10.786Z,99761.16
2022-11-20T21:51:38.171Z,99750.44
2022-11-20T21:54:05.258Z,99746.81
2022-11-20T21:56:32.335Z,99752.84
2022-11-20T21:58:59.122Z,99758.75
2022-11-20T22:01:29.606Z,99761.16
2022-11-20T22:03:59.615Z,99766.94
2022-11-20T22:06:32.494Z,99762.84
2022-11-20T22:09:00.369Z,99757.47
2022-11-20T22:11:27.805Z,99755.94
2022-11-20T22:14:12.971Z,99745.38
2022-11-20T22:16:39.679Z,99746.09
2022-11-20T22:19:07.318Z,99741.91
2022-11-20T22:21:34.981Z,99742.31
2022-11-20T22:24:02.245Z,99741.91
2022-11-20T22:26:36.149Z,99734.44
2022-11-20T22:29:06.707Z,99727.84
2022-11-20T22:31:33.679Z,99724.91
2022-11-20T22:34:02.652Z,99732.50
2022-11-20T22:36:31.458Z,99743.47
2022-11-20T22:38:58.545Z,99738.72
2022-11-20T22:41:27.993Z,99726.63
2022-11-20T22:44:07.462Z,99730.84
2022-11-20T22:46:36.719Z,99720.28
2022-11-20T22:49:08.889Z,99729.31
2022-11-20T22:51:40.343Z,99723.25
2022-11-20T22:54:07.868Z,99713.41
2022-11-20T22:56:35.573Z,99725.06
2022-11-20T22:59:02.499Z,99712.84
2022-11-20T23:01:32.689Z,99715.94
2022-11-20T23:04:05.992Z,99715.06
2022-11-20T23:06:36.705Z,99720.84
2022-11-20T23:09:08.716Z,99716.78
2022-11-20T23:11:36.439Z,99710.72
2022-11-20T23:14:13.210Z,99699.63
2022-11-20T23:16:40.370Z,99704.25
2022-11-20T23:19:10.828Z,99694.84
2022-11-20T23:21:39.751Z,99700.31
2022-11-20T23:24:07.782Z,99692.56
2022-11-20T23:26:37.970Z,99690.91
2022-11-20T23:29:05.666Z,99685.81
2022-11-20T23:31:35.138Z,99674.56
2022-11-20T23:34:02.355Z,99672.16
2022-11-20T23:36:29.418Z,99664.44
2022-11-20T23:38:56.760Z,99661.91
2022-11-20T23:41:23.920Z,99654.03
2022-11-20T23:43:50.693Z,99644.47
2022-11-20T23:46:17.529Z,99653.47
2022-11-20T23:48:45.615Z,99648.25
2022-11-20T23:51:13.608Z,99649.25
2022-11-20T23:53:40.773Z,99651.09
2022-11-20T23:56:08.183Z,99637.72
2022-11-20T23:58:38.095Z,99640.41
